Time;durP1;ratioP1;P1;durP2;ratioP2;P2;SDS_P1;SDS_P2;PMS_P1;PMS_P2;Temp;Humidity;BMP_temperature;BMP_pressure;BME280_temperature;BME280_humidity;BME280_pressure;Samples;Min_cycle;Max_cycle;Signal;HPM_P1;HPM_P2
2022/08/21 00:00:53;;;;;;;7.28;3.95;;;15.30;99.90;;;;;;5076684;28;20044;-75
2022/08/21 00:03:19;;;;;;;8.70;4.43;;;15.30;99.90;;;;;;5077985;28;20036;-76
2022/08/21 00:05:49;;;;;;;8.65;4.78;;;15.30;99.90;;;;;;5076818;28;20480;-75
2022/08/21 00:08:17;;;;;;;12.57;4.95;;;15.20;99.90;;;;;;5060404;28;20040;-75
2022/08/21 00:10:44;;;;;;;7.55;4.13;;;15.20;99.90;;;;;;5076533;28;20398;-76
2022/08/21 00:13:11;;;;;;;8.18;3.97;;;15.20;99.90;;;;;;5076554;28;20044;-76
2022/08/21 00:15:38;;;;;;;9.77;3.95;;;15.10;99.90;;;;;;5078803;28;20574;-75
2022/08/21 00:18:05;;;;;;;10.70;4.43;;;15.10;99.90;;;;;;5078518;28;20136;-75
2022/08/21 00:20:32;;;;;;;10.30;4.43;;;15.20;99.90;;;;;;5078321;28;20097;-76
2022/08/21 00:22:58;;;;;;;7.22;4.05;;;15.10;99.90;;;;;;5060023;28;20044;-76
2022/08/21 00:25:25;;;;;;;10.88;5.50;;;15.10;99.90;;;;;;5076045;28;20527;-76
2022/08/21 00:27:51;;;;;;;10.90;5.00;;;15.10;99.90;;;;;;5076347;28;20036;-75
2022/08/21 00:30:18;;;;;;;6.22;4.32;;;15.00;99.90;;;;;;5076432;28;20044;-75
2022/08/21 00:32:44;;;;;;;6.57;4.32;;;15.10;99.90;;;;;;5076433;28;20127;-76
2022/08/21 00:35:14;;;;;;;9.30;4.82;;;15.00;99.90;;;;;;5077906;28;20071;-75
2022/08/21 00:37:40;;;;;;;9.05;4.35;;;15.10;99.90;;;;;;5059820;28;20086;-75
2022/08/21 00:40:12;;;;;;;9.77;4.65;;;15.00;99.90;;;;;;5076497;28;20103;-76
2022/08/21 00:42:38;;;;;;;7.35;4.50;;;15.00;99.90;;;;;;5076123;28;20068;-75
2022/08/21 00:45:05;;;;;;;10.70;5.63;;;14.90;99.90;;;;;;5075742;28;20100;-76
2022/08/21 00:47:31;;;;;;;8.63;5.65;;;14.90;99.90;;;;;;5075914;28;20045;-75
2022/08/21 00:49:57;;;;;;;11.77;5.35;;;14.90;99.90;;;;;;5075410;28;20062;-76
2022/08/21 00:52:27;;;;;;;10.52;4.78;;;14.90;99.90;;;;;;5059178;28;20041;-76
2022/08/21 00:54:54;;;;;;;10.38;5.05;;;14.80;99.90;;;;;;5076117;28;20052;-76
2022/08/21 00:57:25;;;;;;;8.35;5.30;;;14.90;99.90;;;;;;5076108;28;20403;-76
2022/08/21 00:59:53;;;;;;;9.95;5.15;;;14.80;99.90;;;;;;5075815;28;20048;-75
2022/08/21 01:02:20;;;;;;;11.68;5.85;;;14.90;99.90;;;;;;5076230;28;20052;-75
2022/08/21 01:04:46;;;;;;;15.50;6.35;;;14.90;99.90;;;;;;5077614;28;20094;-76
2022/08/21 01:07:12;;;;;;;11.90;6.00;;;14.80;99.90;;;;;;5075713;28;20040;-75
2022/08/21 01:09:38;;;;;;;11.35;6.28;;;14.80;99.90;;;;;;5075636;28;20033;-75
2022/08/21 01:12:05;;;;;;;13.55;6.57;;;14.80;99.90;;;;;;5075835;28;20044;-75
2022/08/21 01:14:31;;;;;;;12.02;5.95;;;14.80;99.90;;;;;;5075595;28;20041;-75
2022/08/21 01:16:58;;;;;;;13.48;5.35;;;14.80;99.90;;;;;;5076709;28;20049;-75
2022/08/21 01:19:25;;;;;;;8.57;5.82;;;14.80;99.90;;;;;;5075733;28;20048;-75
2022/08/21 01:21:53;;;;;;;13.02;5.43;;;14.80;99.90;;;;;;5075490;28;20500;-75
2022/08/21 01:24:19;;;;;;;9.50;5.65;;;14.80;99.90;;;;;;5075657;28;20151;-75
2022/08/21 01:26:45;;;;;;;11.95;5.38;;;14.80;99.90;;;;;;5076020;28;20041;-75
2022/08/21 01:29:26;;;;;;;13.73;6.82;;;14.80;99.90;;;;;;5075696;28;20037;-75
2022/08/21 01:31:52;;;;;;;14.20;6.75;;;14.80;99.90;;;;;;5075642;28;20036;-76
2022/08/21 01:34:18;;;;;;;11.55;6.78;;;14.80;99.90;;;;;;5075645;28;20064;-75
2022/08/21 01:36:45;;;;;;;14.13;6.03;;;14.80;99.90;;;;;;5075706;28;20563;-75
2022/08/21 01:39:11;;;;;;;11.68;6.80;;;14.80;99.90;;;;;;5075926;28;20101;-75
2022/08/21 01:41:37;;;;;;;12.85;6.10;;;14.80;99.90;;;;;;5075128;28;20051;-74
2022/08/21 01:44:04;;;;;;;11.88;5.85;;;14.70;99.90;;;;;;5076205;28;20411;-75
2022/08/21 01:46:30;;;;;;;11.52;6.50;;;14.80;99.90;;;;;;5075167;28;20040;-75
2022/08/21 01:48:56;;;;;;;13.60;6.50;;;14.70;99.90;;;;;;5075238;28;20119;-75
2022/08/21 01:51:21;;;;;;;13.63;6.57;;;14.70;99.90;;;;;;5076268;28;20110;-75
2022/08/21 01:53:47;;;;;;;12.77;6.30;;;14.70;99.90;;;;;;5075335;28;20098;-74
2022/08/21 01:56:16;;;;;;;17.13;6.95;;;14.60;99.90;;;;;;5078363;28;20047;-75
2022/08/21 01:58:44;;;;;;;11.65;6.28;;;14.60;99.90;;;;;;5080312;28;20040;-75
2022/08/21 02:01:10;;;;;;;9.50;6.90;;;14.60;99.90;;;;;;5078879;28;20051;-75
2022/08/21 02:03:37;;;;;;;12.63;7.00;;;14.60;99.90;;;;;;5079381;28;20053;-75
2022/08/21 02:06:05;;;;;;;13.85;6.30;;;14.50;99.90;;;;;;5079479;28;20064;-75
2022/08/21 02:08:31;;;;;;;11.77;6.60;;;14.50;99.90;;;;;;5079319;28;20403;-75
2022/08/21 02:10:57;;;;;;;11.27;6.80;;;14.50;99.90;;;;;;5079257;28;20098;-75
2022/08/21 02:13:23;;;;;;;12.98;5.97;;;14.40;99.90;;;;;;5079126;28;20692;-75
2022/08/21 02:15:48;;;;;;;16.50;7.63;;;14.40;99.90;;;;;;5079454;28;20057;-75
2022/08/21 02:18:14;;;;;;;11.80;6.63;;;14.40;99.90;;;;;;5079097;28;20044;-75
2022/08/21 02:20:44;;;;;;;12.77;6.10;;;14.40;99.90;;;;;;5080766;28;20147;-75
2022/08/21 02:23:11;;;;;;;9.13;5.78;;;14.40;99.90;;;;;;5091893;28;20077;-76
2022/08/21 02:25:37;;;;;;;13.45;5.53;;;14.30;99.90;;;;;;5090300;28;20102;-76
2022/08/21 02:28:07;;;;;;;11.18;6.65;;;14.30;99.90;;;;;;5078427;28;20037;-75
2022/08/21 02:30:38;;;;;;;11.60;6.30;;;14.20;99.90;;;;;;5078278;28;20033;-75
2022/08/21 02:33:05;;;;;;;8.27;6.90;;;14.20;99.90;;;;;;5078363;28;20142;-75
2022/08/21 02:35:31;;;;;;;11.70;5.82;;;14.20;99.90;;;;;;5078388;28;20048;-75
2022/08/21 02:38:00;;;;;;;10.55;6.00;;;14.20;99.90;;;;;;5078637;28;20128;-75
2022/08/21 02:40:30;;;;;;;13.45;6.47;;;14.20;99.90;;;;;;5078313;28;20059;-75
2022/08/21 02:42:57;;;;;;;13.23;6.38;;;14.10;99.90;;;;;;5078144;28;20079;-75
2022/08/21 02:45:22;;;;;;;13.15;6.90;;;14.20;99.90;;;;;;5078231;28;20040;-76
2022/08/21 02:47:50;;;;;;;14.10;7.38;;;14.00;99.90;;;;;;5078044;28;20044;-76
2022/08/21 02:50:29;;;;;;;17.58;7.63;;;14.10;99.90;;;;;;5077842;28;20154;-78
2022/08/21 02:52:56;;;;;;;11.02;6.40;;;13.90;99.90;;;;;;5078042;28;20052;-75
2022/08/21 02:55:26;;;;;;;16.10;6.53;;;14.10;99.90;;;;;;5078380;28;20083;-75
2022/08/21 02:57:53;;;;;;;10.52;5.93;;;14.00;99.90;;;;;;5078440;28;20075;-75
2022/08/21 03:00:20;;;;;;;12.18;6.07;;;14.00;99.90;;;;;;5077634;28;20572;-75
2022/08/21 03:02:46;;;;;;;8.70;5.22;;;14.00;99.90;;;;;;5079077;28;20040;-75
2022/08/21 03:05:14;;;;;;;11.10;5.60;;;14.00;99.90;;;;;;5077774;28;20036;-76
2022/08/21 03:07:42;;;;;;;10.60;6.03;;;13.90;99.90;;;;;;5077320;28;20114;-76
2022/08/21 03:10:08;;;;;;;10.38;5.65;;;13.90;99.90;;;;;;5077759;28;20059;-75
2022/08/21 03:12:38;;;;;;;10.35;5.40;;;13.90;99.90;;;;;;5077684;28;20067;-75
2022/08/21 03:15:06;;;;;;;11.93;5.70;;;13.90;99.90;;;;;;5077517;28;20045;-75
2022/08/21 03:17:33;;;;;;;8.57;5.75;;;13.90;99.90;;;;;;5077695;28;20102;-75
2022/08/21 03:19:59;;;;;;;10.77;5.47;;;13.80;99.90;;;;;;5077229;28;20044;-77
2022/08/21 03:22:25;;;;;;;12.65;6.38;;;13.90;99.90;;;;;;5077628;28;20070;-77
2022/08/21 03:24:51;;;;;;;13.55;5.95;;;13.90;99.90;;;;;;5078167;28;20044;-76
2022/08/21 03:27:17;;;;;;;10.73;5.85;;;13.90;99.90;;;;;;5077704;28;20074;-77
2022/08/21 03:29:43;;;;;;;10.80;6.90;;;13.90;99.90;;;;;;5077383;28;20036;-77
2022/08/21 03:32:09;;;;;;;10.45;6.85;;;13.90;99.90;;;;;;5077395;28;20039;-77
2022/08/21 03:34:36;;;;;;;13.07;6.78;;;13.90;99.90;;;;;;5077337;28;20052;-74
2022/08/21 03:37:03;;;;;;;12.07;7.10;;;13.90;99.90;;;;;;5077305;28;20049;-75
2022/08/21 03:39:29;;;;;;;12.93;7.43;;;13.90;99.90;;;;;;5076633;28;20040;-75
2022/08/21 03:41:55;;;;;;;11.85;6.82;;;14.00;99.90;;;;;;5077118;28;20036;-74
2022/08/21 03:44:21;;;;;;;17.30;8.38;;;14.00;99.90;;;;;;5077899;28;20048;-74
2022/08/21 03:46:47;;;;;;;10.93;7.32;;;14.10;99.90;;;;;;5076879;28;20097;-75
2022/08/21 03:49:13;;;;;;;12.25;8.10;;;14.00;99.90;;;;;;5076403;28;20074;-75
2022/08/21 03:51:38;;;;;;;13.13;8.05;;;14.00;99.90;;;;;;5077085;28;20052;-76
2022/08/21 03:54:05;;;;;;;11.73;7.47;;;14.00;99.90;;;;;;5060878;28;20339;-76
2022/08/21 03:56:30;;;;;;;13.43;8.05;;;14.00;99.90;;;;;;5076961;28;20052;-76
2022/08/21 03:58:56;;;;;;;15.80;7.63;;;14.00;99.90;;;;;;5077052;28;20430;-77
2022/08/21 04:01:22;;;;;;;11.05;7.63;;;14.00;99.90;;;;;;5076643;28;20040;-77
2022/08/21 04:03:48;;;;;;;11.60;7.55;;;14.00;99.90;;;;;;5076695;28;20185;-76
2022/08/21 04:06:13;;;;;;;12.55;7.57;;;14.00;99.90;;;;;;5076877;28;20041;-77
2022/08/21 04:08:42;;;;;;;13.73;8.20;;;13.90;99.90;;;;;;5077152;28;20048;-77
2022/08/21 04:11:07;;;;;;;13.05;6.95;;;13.90;99.90;;;;;;5060349;28;20444;-77
2022/08/21 04:13:33;;;;;;;12.77;7.38;;;13.90;99.90;;;;;;5060124;28;20123;-74
2022/08/21 04:15:59;;;;;;;12.02;6.72;;;13.90;99.90;;;;;;5076832;28;20055;-74
2022/08/21 04:18:25;;;;;;;12.77;8.63;;;13.90;99.90;;;;;;5075985;28;20063;-75
2022/08/21 04:20:53;;;;;;;13.77;7.50;;;14.00;99.90;;;;;;5077699;28;20052;-74
2022/08/21 04:23:20;;;;;;;9.90;7.20;;;13.90;99.90;;;;;;5076321;28;20499;-75
2022/08/21 04:25:46;;;;;;;14.93;7.38;;;13.90;99.90;;;;;;5076411;28;20033;-75
2022/08/21 04:28:11;;;;;;;12.38;7.68;;;13.90;99.90;;;;;;5076191;28;20043;-76
2022/08/21 04:30:37;;;;;;;12.90;7.72;;;13.90;99.90;;;;;;5075539;28;20033;-75
2022/08/21 04:33:03;;;;;;;12.25;7.07;;;13.90;99.90;;;;;;5075405;28;20037;-75
2022/08/21 04:35:29;;;;;;;14.30;6.80;;;13.90;99.90;;;;;;5077172;28;20471;-75
2022/08/21 04:37:56;;;;;;;15.60;7.00;;;13.90;99.90;;;;;;5076049;28;20186;-75
2022/08/21 04:40:24;;;;;;;11.15;7.57;;;13.90;99.90;;;;;;5075717;28;20050;-75
2022/08/21 04:43:04;;;;;;;16.75;7.40;;;13.80;99.90;;;;;;5075595;28;20051;-75
2022/08/21 04:45:36;;;;;;;11.32;7.30;;;13.90;99.90;;;;;;5075902;28;20059;-76
2022/08/21 04:48:04;;;;;;;11.80;7.95;;;13.90;99.90;;;;;;5076259;28;20064;-75
2022/08/21 04:50:41;;;;;;;9.63;6.07;;;13.90;99.90;;;;;;5059274;28;20040;-76
2022/08/21 04:53:11;;;;;;;13.30;7.10;;;13.90;99.90;;;;;;5075661;28;20036;-75
2022/08/21 04:55:37;;;;;;;13.63;7.20;;;13.90;99.90;;;;;;5077098;28;20066;-75
2022/08/21 04:58:06;;;;;;;10.20;6.60;;;14.00;99.90;;;;;;5075896;28;20077;-75
2022/08/21 05:00:32;;;;;;;9.93;6.97;;;14.00;99.90;;;;;;5075525;28;20049;-75
2022/08/21 05:02:59;;;;;;;10.50;6.05;;;14.00;99.90;;;;;;5075556;28;20055;-75
2022/08/21 05:05:27;;;;;;;12.93;6.75;;;14.10;99.90;;;;;;5075792;28;20044;-75
2022/08/21 05:07:53;;;;;;;11.23;6.10;;;14.10;99.90;;;;;;5075876;28;20369;-77
2022/08/21 05:10:19;;;;;;;9.00;5.55;;;14.40;99.90;;;;;;5075592;28;20044;-77
2022/08/21 05:12:45;;;;;;;10.70;6.25;;;14.70;99.90;;;;;;5075830;28;20051;-75
2022/08/21 05:15:14;;;;;;;8.10;5.75;;;15.00;99.90;;;;;;5077064;28;20052;-75
2022/08/21 05:17:40;;;;;;;8.25;5.40;;;15.30;99.90;;;;;;5075959;28;20033;-75
2022/08/21 05:20:07;;;;;;;10.23;5.15;;;15.40;99.90;;;;;;5075388;28;20051;-75
2022/08/21 05:22:33;;;;;;;8.45;4.53;;;15.50;99.90;;;;;;5075462;28;20111;-75
2022/08/21 05:24:58;;;;;;;14.93;5.07;;;15.50;99.90;;;;;;5076506;28;20094;-75
2022/08/21 05:27:24;;;;;;;8.90;5.43;;;15.50;99.90;;;;;;5075204;28;20044;-75
2022/08/21 05:29:49;;;;;;;8.50;4.30;;;15.50;99.90;;;;;;5076476;28;20036;-75
2022/08/21 05:32:15;;;;;;;7.50;4.43;;;15.40;99.90;;;;;;5079684;28;20064;-75
2022/08/21 05:34:41;;;;;;;8.48;4.38;;;15.50;99.90;;;;;;5079595;28;20040;-75
2022/08/21 05:37:06;;;;;;;10.60;4.78;;;15.50;99.90;;;;;;5079668;28;20040;-75
2022/08/21 05:39:32;;;;;;;9.73;4.50;;;15.60;99.90;;;;;;5079272;28;20044;-75
2022/08/21 05:41:58;;;;;;;11.48;5.15;;;15.60;99.90;;;;;;5079180;28;20133;-75
2022/08/21 05:44:24;;;;;;;8.15;5.10;;;15.50;99.90;;;;;;5079247;28;20041;-75
2022/08/21 05:46:49;;;;;;;7.50;4.35;;;15.50;99.90;;;;;;5079307;28;20036;-75
2022/08/21 05:49:15;;;;;;;8.48;4.40;;;15.50;99.90;;;;;;5079380;28;20044;-75
2022/08/21 05:51:41;;;;;;;7.50;4.32;;;15.70;99.90;;;;;;5080093;28;20488;-75
2022/08/21 05:54:07;;;;;;;10.40;4.47;;;15.60;99.90;;;;;;5078836;28;20063;-75
2022/08/21 05:56:33;;;;;;;11.13;4.70;;;15.70;99.90;;;;;;5078832;28;20048;-75
2022/08/21 05:58:59;;;;;;;12.02;4.13;;;15.80;99.90;;;;;;5079022;28;20052;-75
2022/08/21 06:01:25;;;;;;;12.43;4.55;;;15.90;99.90;;;;;;5078667;28;20076;-76
2022/08/21 06:03:51;;;;;;;11.88;4.85;;;15.90;99.90;;;;;;5078653;28;20044;-75
2022/08/21 06:06:16;;;;;;;7.93;4.05;;;16.00;99.90;;;;;;5078781;28;20036;-75
2022/08/21 06:08:42;;;;;;;11.77;4.75;;;16.00;99.90;;;;;;5062011;28;20037;-75
2022/08/21 06:11:08;;;;;;;8.55;3.63;;;15.90;99.90;;;;;;5079889;28;20029;-75
2022/08/21 06:13:35;;;;;;;7.88;4.28;;;16.00;99.90;;;;;;5079070;28;20051;-75
2022/08/21 06:16:12;;;;;;;8.18;4.13;;;16.00;99.90;;;;;;5079061;28;20040;-75
2022/08/21 06:18:39;;;;;;;7.10;4.00;;;16.00;99.90;;;;;;5079229;28;20072;-75
2022/08/21 06:21:05;;;;;;;9.27;4.10;;;16.00;99.90;;;;;;5078404;28;20048;-76
2022/08/21 06:23:31;;;;;;;10.52;3.75;;;16.10;99.90;;;;;;5076100;28;20063;-76
2022/08/21 06:25:57;;;;;;;11.43;4.20;;;16.10;99.90;;;;;;5072350;28;20040;-75
2022/08/21 06:28:23;;;;;;;9.60;4.47;;;16.20;99.90;;;;;;5072535;28;20406;-75
2022/08/21 06:30:48;;;;;;;8.57;4.32;;;16.20;99.90;;;;;;5080107;28;20087;-78
2022/08/21 06:33:14;;;;;;;9.93;4.20;;;16.20;99.90;;;;;;5098898;28;20041;-73
2022/08/21 06:35:40;;;;;;;9.60;4.53;;;16.30;99.90;;;;;;5097189;28;20063;-77
2022/08/21 06:38:06;;;;;;;12.45;4.28;;;16.40;99.90;;;;;;5072186;28;20547;-75
2022/08/21 06:40:31;;;;;;;8.48;4.18;;;16.50;99.90;;;;;;5071961;28;20044;-77
2022/08/21 06:43:04;;;;;;;9.75;3.95;;;16.50;99.90;;;;;;5071247;28;20037;-74
2022/08/21 06:45:29;;;;;;;11.25;4.30;;;16.60;99.90;;;;;;5071959;28;20076;-75
2022/08/21 06:47:55;;;;;;;11.85;4.40;;;16.90;99.90;;;;;;5072496;28;20076;-77
2022/08/21 06:50:21;;;;;;;7.88;4.28;;;17.50;99.90;;;;;;5071626;28;20509;-74
2022/08/21 06:52:46;;;;;;;10.43;4.28;;;18.10;99.90;;;;;;5072122;28;20044;-77
2022/08/21 06:55:13;;;;;;;10.95;3.90;;;18.30;99.90;;;;;;5072612;28;20048;-75
2022/08/21 06:57:38;;;;;;;10.70;3.67;;;18.70;99.90;;;;;;5072833;28;20048;-75
2022/08/21 07:00:06;;;;;;;8.52;3.38;;;19.20;99.90;;;;;;5072804;28;20399;-76
2022/08/21 07:02:33;;;;;;;11.07;3.83;;;19.40;99.90;;;;;;5072271;28;20051;-77
2022/08/21 07:04:59;;;;;;;11.98;3.67;;;19.50;99.90;;;;;;5072481;28;20441;-78
2022/08/21 07:07:25;;;;;;;11.30;3.97;;;19.40;99.90;;;;;;5074266;28;20055;-78
2022/08/21 07:09:50;;;;;;;8.77;3.60;;;19.30;99.90;;;;;;5056169;28;20040;-75
2022/08/21 07:12:16;;;;;;;8.88;3.15;;;19.30;99.90;;;;;;5072073;28;20507;-75
2022/08/21 07:14:42;;;;;;;7.60;3.17;;;19.40;99.90;;;;;;5072580;28;20488;-78
2022/08/21 07:17:08;;;;;;;8.27;2.90;;;19.60;99.90;;;;;;5074111;28;20445;-79
2022/08/21 07:19:33;;;;;;;7.50;3.05;;;19.90;99.90;;;;;;5073843;28;20041;-78
2022/08/21 07:22:01;;;;;;;8.48;3.08;;;20.30;99.90;;;;;;5072639;28;20502;-78
2022/08/21 07:24:28;;;;;;;11.30;3.15;;;21.00;99.90;;;;;;5072672;28;20442;-76
2022/08/21 07:26:53;;;;;;;11.80;3.13;;;21.50;99.90;;;;;;5070821;28;20079;-76
2022/08/21 07:29:19;;;;;;;10.30;3.10;;;22.10;99.90;;;;;;5075983;28;20194;-78
2022/08/21 07:31:45;;;;;;;9.18;2.50;;;22.50;99.90;;;;;;5071851;28;20473;-76
2022/08/21 07:34:10;;;;;;;8.07;3.05;;;23.00;99.90;;;;;;5071066;28;20429;-76
2022/08/21 07:36:36;;;;;;;10.00;2.67;;;23.20;99.90;;;;;;5072687;28;20090;-73
2022/08/21 07:39:02;;;;;;;12.13;2.72;;;23.40;99.90;;;;;;5072134;28;20083;-73
2022/08/21 07:41:28;;;;;;;10.15;3.22;;;23.60;99.90;;;;;;5072089;28;20463;-80
2022/08/21 07:43:58;;;;;;;7.18;2.65;;;23.70;99.90;;;;;;5074697;28;20127;-76
2022/08/21 07:46:24;;;;;;;8.50;2.85;;;23.90;99.90;;;;;;5107982;28;20040;-74
2022/08/21 07:48:50;;;;;;;8.43;2.67;;;24.10;99.90;;;;;;5116662;28;20051;-75
2022/08/21 07:51:17;;;;;;;9.93;3.38;;;24.30;99.90;;;;;;5113492;28;20035;-74
2022/08/21 07:53:48;;;;;;;11.30;2.88;;;24.50;99.90;;;;;;5095421;28;20028;-74
2022/08/21 07:56:14;;;;;;;6.95;2.72;;;24.70;99.90;;;;;;5077548;28;20033;-78
2022/08/21 07:58:39;;;;;;;11.15;2.58;;;24.70;99.90;;;;;;5074515;28;20036;-76
2022/08/21 08:01:06;;;;;;;5.30;2.45;;;24.80;99.90;;;;;;5070185;28;20395;-77
2022/08/21 08:03:32;;;;;;;10.85;2.85;;;24.90;99.90;;;;;;5071109;28;20051;-75
2022/08/21 08:05:58;;;;;;;8.10;3.55;;;25.00;99.90;;;;;;5089989;28;20398;-76
2022/08/21 08:08:24;;;;;;;8.20;2.85;;;25.00;99.90;;;;;;5078563;28;20048;-76
2022/08/21 08:10:50;;;;;;;13.10;2.80;;;25.10;99.90;;;;;;5071430;28;20407;-75
2022/08/21 08:13:16;;;;;;;7.10;2.40;;;25.10;99.90;;;;;;5071987;28;20064;-75
2022/08/21 08:15:42;;;;;;;9.15;2.67;;;25.20;99.90;;;;;;5052944;28;20041;-76
2022/08/21 08:18:08;;;;;;;7.72;2.60;;;25.20;99.90;;;;;;5068049;28;20048;-76
2022/08/21 08:20:33;;;;;;;7.97;2.88;;;25.40;99.90;;;;;;5071042;28;20326;-77
2022/08/21 08:22:59;;;;;;;8.02;2.67;;;25.50;99.90;;;;;;5070105;28;20515;-76
2022/08/21 08:25:27;;;;;;;5.28;3.00;;;25.70;99.90;;;;;;5069952;28;20072;-75
2022/08/21 08:27:53;;;;;;;10.55;3.15;;;25.80;99.90;;;;;;5071990;28;20036;-76
2022/08/21 08:30:20;;;;;;;9.05;2.63;;;25.80;99.90;;;;;;5069868;28;20411;-76
2022/08/21 08:32:48;;;;;;;7.95;2.67;;;25.70;99.90;;;;;;5070684;28;20399;-77
2022/08/21 08:35:15;;;;;;;6.32;2.60;;;25.80;99.90;;;;;;5070086;28;20048;-77
2022/08/21 08:37:42;;;;;;;8.15;2.38;;;25.80;99.90;;;;;;5070007;28;20055;-76
2022/08/21 08:40:25;;;;;;;6.70;1.98;;;25.90;99.90;;;;;;5070682;28;20049;-78
2022/08/21 08:42:51;;;;;;;4.32;1.88;;;26.10;97.00;;;;;;5071062;28;20515;-76
2022/08/21 08:45:21;;;;;;;8.40;3.47;;;26.10;99.90;;;;;;5071039;28;20075;-78
2022/08/21 08:47:57;;;;;;;6.15;2.30;;;26.00;99.50;;;;;;5071083;28;20048;-78
2022/08/21 08:50:52;;;;;;;9.18;2.38;;;26.10;99.30;;;;;;5075254;28;20391;-76
2022/08/21 08:53:25;;;;;;;8.05;2.83;;;26.10;96.40;;;;;;5073357;28;20044;-78
2022/08/21 08:55:52;;;;;;;9.55;2.20;;;26.00;99.90;;;;;;5074049;28;20052;-77
2022/08/21 08:58:31;;;;;;;7.63;1.52;;;26.20;99.70;;;;;;5070989;28;20099;-77
2022/08/21 09:00:58;;;;;;;8.38;2.17;;;26.40;98.10;;;;;;5069060;28;20549;-78
2022/08/21 09:03:25;;;;;;;7.35;1.40;;;26.60;98.60;;;;;;5070232;28;20045;-77
2022/08/21 09:05:54;;;;;;;6.65;1.20;;;26.60;96.80;;;;;;5071092;28;20040;-78
2022/08/21 09:08:49;;;;;;;4.13;1.10;;;26.60;94.60;;;;;;5055583;28;20044;-77
2022/08/21 09:11:28;;;;;;;6.70;1.80;;;26.40;91.70;;;;;;5055191;28;20029;-78
2022/08/21 09:14:12;;;;;;;5.97;1.25;;;26.50;92.40;;;;;;5073475;28;20033;-78
2022/08/21 09:16:50;;;;;;;10.98;1.77;;;26.50;95.50;;;;;;5047381;28;20099;-78
2022/08/21 09:19:37;;;;;;;5.85;1.20;;;26.50;88.70;;;;;;5055935;28;20071;-78
2022/08/21 09:22:10;;;;;;;4.97;1.30;;;26.50;95.80;;;;;;5071765;28;20098;-77
2022/08/21 09:25:08;;;;;;;7.07;1.33;;;26.70;95.00;;;;;;5057644;28;20033;-75
2022/08/21 09:27:35;;;;;;;7.63;2.05;;;26.90;95.30;;;;;;5082169;28;20124;-78
2022/08/21 09:30:01;;;;;;;6.90;1.80;;;27.00;95.70;;;;;;5067904;28;20112;-74
2022/08/21 09:32:30;;;;;;;6.03;1.45;;;27.00;95.30;;;;;;5073053;28;20071;-75
2022/08/21 09:35:07;;;;;;;5.55;1.85;;;27.20;95.00;;;;;;5069950;28;20048;-79
2022/08/21 09:37:45;;;;;;;5.82;1.27;;;27.30;93.20;;;;;;5053616;28;20111;-79
2022/08/21 09:40:35;;;;;;;6.13;1.40;;;27.50;92.90;;;;;;5072263;28;20036;-78
2022/08/21 09:43:06;;;;;;;5.65;1.27;;;27.80;90.70;;;;;;5073804;28;20045;-78
2022/08/21 09:45:33;;;;;;;7.15;1.40;;;27.70;91.40;;;;;;5071181;28;20037;-77
2022/08/21 09:48:14;;;;;;;5.38;1.38;;;27.80;93.70;;;;;;5068844;28;20032;-77
2022/08/21 09:50:42;;;;;;;8.65;1.83;;;27.90;92.80;;;;;;5059945;28;20045;-78
2022/08/21 09:53:23;;;;;;;7.57;1.95;;;28.00;93.80;;;;;;5053043;28;20052;-77
2022/08/21 09:58:50;;;;;;;9.23;1.73;;;27.70;91.00;;;;;;5068366;28;20045;-78
2022/08/21 10:01:22;;;;;;;6.03;1.65;;;27.70;91.30;;;;;;5051314;28;20037;-76
2022/08/21 10:03:48;;;;;;;10.13;1.80;;;27.30;90.30;;;;;;5052974;28;20377;-77
2022/08/21 10:06:27;;;;;;;4.60;1.40;;;27.00;92.60;;;;;;5053178;28;20032;-77
2022/08/21 10:09:12;;;;;;;10.18;1.77;;;27.10;89.80;;;;;;5054578;28;20024;-77
2022/08/21 10:11:39;;;;;;;7.57;1.52;;;26.90;92.50;;;;;;5059550;28;20051;-78
2022/08/21 10:14:13;;;;;;;7.50;2.22;;;26.50;93.80;;;;;;5067031;28;20044;-77
2022/08/21 10:16:47;;;;;;;8.38;1.90;;;26.30;95.50;;;;;;5064222;28;20067;-77
2022/08/21 10:19:45;;;;;;;7.93;1.55;;;25.90;95.20;;;;;;5070475;28;20048;-78
2022/08/21 10:22:37;;;;;;;6.80;1.70;;;25.70;96.40;;;;;;5071113;28;20451;-77
2022/08/21 10:25:17;;;;;;;;;;;25.70;97.00;;;;;;5074479;28;20054;-77
2022/08/21 10:28:00;;;;;;;5.97;1.83;;;25.90;95.40;;;;;;5062319;28;19926;-78
2022/08/21 10:30:38;;;;;;;6.32;1.95;;;26.00;98.00;;;;;;5058386;28;20384;-77
2022/08/21 10:33:36;;;;;;;5.95;1.60;;;25.80;96.40;;;;;;5072783;28;20039;-78
2022/08/21 10:36:11;;;;;;;8.38;1.50;;;25.50;97.40;;;;;;5074856;28;20047;-77
2022/08/21 10:38:59;;;;;;;7.45;2.03;;;25.30;98.40;;;;;;5054306;28;20084;-77
2022/08/21 10:41:45;;;;;;;7.90;1.80;;;25.30;98.40;;;;;;5053502;28;20103;-78
2022/08/21 10:44:33;;;;;;;5.90;2.10;;;25.40;99.00;;;;;;5054612;28;20098;-79
2022/08/21 10:47:12;;;;;;;5.50;1.65;;;25.60;98.00;;;;;;5056806;28;20067;-79
2022/08/21 10:50:09;;;;;;;7.72;1.70;;;25.70;98.20;;;;;;5087138;28;20108;-75
2022/08/21 10:53:05;;;;;;;7.30;1.45;;;25.80;99.80;;;;;;5097755;28;20036;-72
2022/08/21 10:55:43;;;;;;;7.40;2.00;;;26.10;99.90;;;;;;5097961;28;20036;-74
2022/08/21 10:58:13;;;;;;;7.43;1.77;;;26.30;99.90;;;;;;5085911;28;20379;-79
2022/08/21 11:00:49;;;;;;;9.02;2.30;;;26.60;99.50;;;;;;5071391;28;20090;-79
2022/08/21 11:03:28;;;;;;;8.00;1.98;;;26.70;97.70;;;;;;5070782;28;20132;-78
2022/08/21 11:06:11;;;;;;;7.35;1.98;;;26.70;97.60;;;;;;5071821;28;20078;-79
2022/08/21 11:08:50;;;;;;;5.55;1.30;;;26.70;97.90;;;;;;5055054;28;20032;-79
2022/08/21 11:11:22;;;;;;;3.88;1.40;;;26.70;97.50;;;;;;5071997;28;20040;-80
2022/08/21 11:14:21;;;;;;;4.75;1.77;;;26.90;98.30;;;;;;5069977;28;20541;-79
2022/08/21 11:17:05;;;;;;;5.72;1.52;;;26.90;94.90;;;;;;5066437;28;20040;-78
2022/08/21 11:19:49;;;;;;;7.63;1.92;;;26.80;96.20;;;;;;5062185;28;20490;-78
2022/08/21 11:22:28;;;;;;;8.50;1.60;;;26.60;94.90;;;;;;5054087;28;20398;-80
2022/08/21 11:25:09;;;;;;;6.70;1.73;;;26.70;96.10;;;;;;5054763;28;20044;-79
2022/08/21 11:27:50;;;;;;;3.58;1.50;;;26.70;95.70;;;;;;5070505;28;20036;-79
2022/08/21 11:30:16;;;;;;;6.32;1.63;;;26.60;94.30;;;;;;5071941;28;20449;-79
2022/08/21 11:32:48;;;;;;;5.03;1.63;;;26.60;93.40;;;;;;5070525;28;20127;-79
2022/08/21 11:35:50;;;;;;;7.60;1.73;;;26.70;94.60;;;;;;5053045;28;20110;-79
2022/08/21 11:38:35;;;;;;;7.63;1.40;;;26.90;91.90;;;;;;5072636;28;20044;-80
2022/08/21 11:41:22;;;;;;;5.78;1.42;;;26.80;92.70;;;;;;5070787;28;20041;-77
2022/08/21 11:44:00;;;;;;;8.70;1.58;;;26.80;92.60;;;;;;5065858;28;20531;-80
2022/08/21 11:46:30;;;;;;;6.20;1.75;;;26.70;94.40;;;;;;5068889;28;20044;-79
2022/08/21 11:49:09;;;;;;;4.47;1.63;;;26.70;94.80;;;;;;5067790;28;20044;-80
2022/08/21 11:51:47;;;;;;;6.47;1.40;;;27.00;93.80;;;;;;5069379;28;20545;-78
2022/08/21 11:54:28;;;;;;;4.20;1.45;;;27.30;92.10;;;;;;5070756;28;20044;-78
2022/08/21 11:57:14;;;;;;;5.85;1.80;;;27.40;91.70;;;;;;5071731;28;20040;-80
2022/08/21 11:59:47;;;;;;;6.70;1.25;;;27.20;88.70;;;;;;5071258;28;20507;-80
2022/08/21 12:02:16;;;;;;;6.10;1.55;;;27.00;90.50;;;;;;5056854;28;20036;-79
2022/08/21 12:05:01;;;;;;;8.45;1.73;;;26.70;91.70;;;;;;5075096;28;20388;-79
2022/08/21 12:07:30;;;;;;;10.40;1.80;;;26.50;93.50;;;;;;5075529;28;20628;-79
2022/08/21 12:09:58;;;;;;;4.63;1.50;;;26.40;94.30;;;;;;5091449;28;20063;-80
2022/08/21 12:12:34;;;;;;;4.53;1.30;;;26.60;95.00;;;;;;5092546;28;20078;-80
2022/08/21 12:15:21;;;;;;;10.18;1.70;;;26.80;92.00;;;;;;5083397;28;20039;-80
2022/08/21 12:17:57;;;;;;;4.75;1.50;;;26.90;91.30;;;;;;5054342;28;20040;-78
2022/08/21 12:20:38;;;;;;;7.78;1.83;;;26.60;92.10;;;;;;5069678;28;20036;-80
2022/08/21 12:23:10;;;;;;;5.40;1.30;;;26.20;93.00;;;;;;5069671;28;20072;-79
2022/08/21 12:25:44;;;;;;;6.68;1.73;;;25.80;94.60;;;;;;5071257;28;20332;-77
2022/08/21 12:28:13;;;;;;;9.02;2.25;;;25.70;94.90;;;;;;5069694;28;20040;-78
2022/08/21 12:30:44;;;;;;;9.15;2.03;;;25.50;97.10;;;;;;5069417;28;20040;-79
2022/08/21 12:33:24;;;;;;;8.50;1.90;;;25.60;97.90;;;;;;5069491;28;20098;-78
2022/08/21 12:36:00;;;;;;;12.70;1.95;;;25.50;97.80;;;;;;5069841;28;20048;-78
2022/08/21 12:38:39;;;;;;;7.47;1.50;;;25.50;97.90;;;;;;5069506;28;20048;-78
2022/08/21 12:41:10;;;;;;;9.82;1.55;;;25.50;98.90;;;;;;5069173;28;20040;-78
2022/08/21 12:44:08;;;;;;;6.85;1.73;;;25.30;99.10;;;;;;5069818;28;20119;-78
2022/08/21 12:46:46;;;;;;;5.18;1.45;;;25.30;99.60;;;;;;5062149;28;20446;-79
2022/08/21 12:49:24;;;;;;;5.57;1.60;;;25.30;97.80;;;;;;5068942;28;20037;-79
2022/08/21 12:52:13;;;;;;;5.97;1.58;;;25.30;98.00;;;;;;5069624;28;20526;-78
2022/08/21 12:54:41;;;;;;;6.80;1.65;;;25.60;97.60;;;;;;5052889;28;20553;-76
2022/08/21 12:57:17;;;;;;;5.97;1.70;;;25.80;97.90;;;;;;5070554;28;20051;-76
2022/08/21 12:59:43;;;;;;;8.13;1.80;;;26.10;96.80;;;;;;5049308;28;20041;-77
2022/08/21 13:02:19;;;;;;;6.95;1.90;;;26.30;95.20;;;;;;5049938;28;20046;-75